Accueil
METAR-TAF:

METAR-TAF

Aéroports :

Aéroport international Léon-Mba

Libreville, Gabon

latitude: 00-27N, longitude: 009-25E, altitude: 12 m

Observation

Le bulletin a été fait il y a 15 minutes, à 22:30 UTC
Vent 5 kt de sud/sud-ouest, variant entre sud et ouest
Température 25°C
Humidité 83%
Pression 1015 hPa
Visibilité 10 km ou plus
Quelques nuages à une hauteur de 1000 ft

METAR: FOOL 202230Z 20005KT 180V260 9999 FEW010 25/22 Q1015 NOSIG

Heure: 23:45 (22:45 UTC)

Prévision

Le bulletin a été fait il y a 5 heures et 45 minutes, à 17:00 UTC
Prévision valable du 20 à 18 UTC au 21 à 24 UTC
Vent 8 kt de sud-ouest
Visibilité 10 km ou plus
Nuages épars à une hauteur de 1600 ft
Temporairement
du 21 à 05 UTC au 21 à 09 UTC
Nuages fragmentés à une hauteur de 1000 ft
Ciel couvert à une hauteur de 3000 ft

TAF: FOOL 201700Z 2018/2124 22008KT 9999 SCT016 TEMPO 2105/2109 BKN010 OVC030

Observations et prévisions météorologiques de plus de 4000 aéroports (messages METAR et TAF).

Les stations disponibles sont représentées par des disques jaunes et rouges sur la carte.

Passer la souris dessus pour voir le nom de la station.

Cliquer dessus pour voir les observations et prévisions météorologiques.

Pour changer de carte: cliquez sur les boutons verts avec une croix noire pour zoomer, sur le bouton vert avec un tiret pour effectuer un zoom arrière, ou sur les flèches vertes pour les cartes adjacentes.


METAR-TAF: